createdAt,value
2022-08-26T00:00:49.731Z,7.33
2022-08-26T00:03:18.314Z,5.67
2022-08-26T00:05:47.828Z,6.10
2022-08-26T00:08:16.986Z,5.30
2022-08-26T00:10:45.690Z,5.53
2022-08-26T00:13:13.832Z,6.00
2022-08-26T00:15:42.595Z,6.87
2022-08-26T00:18:22.017Z,5.70
2022-08-26T00:20:51.330Z,6.03
2022-08-26T00:23:19.375Z,6.37
2022-08-26T00:25:50.438Z,5.83
2022-08-26T00:28:18.987Z,6.17
2022-08-26T00:30:51.749Z,6.10
2022-08-26T00:33:22.130Z,5.23
2022-08-26T00:35:50.459Z,6.00
2022-08-26T00:38:21.236Z,6.40
2022-08-26T00:40:53.255Z,6.07
2022-08-26T00:43:23.067Z,5.33
2022-08-26T00:45:58.530Z,5.80
2022-08-26T00:48:31.747Z,5.77
2022-08-26T00:51:03.896Z,6.00
2022-08-26T00:53:35.351Z,6.00
2022-08-26T00:56:08.962Z,5.73
2022-08-26T00:58:43.047Z,5.83
2022-08-26T01:01:12.484Z,5.87
2022-08-26T01:03:44.455Z,6.23
2022-08-26T01:06:14.602Z,6.10
2022-08-26T01:08:42.826Z,5.80
2022-08-26T01:11:12.444Z,6.30
2022-08-26T01:13:41.417Z,5.67
2022-08-26T01:16:15.112Z,6.00
2022-08-26T01:18:46.852Z,6.30
2022-08-26T01:21:21.617Z,6.77
2022-08-26T01:23:57.345Z,6.33
2022-08-26T01:26:29.545Z,6.47
2022-08-26T01:29:00.914Z,6.17
2022-08-26T01:31:37.411Z,5.83
2022-08-26T01:34:12.023Z,5.90
2022-08-26T01:36:41.229Z,5.90
2022-08-26T01:39:11.456Z,5.97
2022-08-26T01:41:41.003Z,5.30
2022-08-26T01:44:17.026Z,6.27
2022-08-26T01:46:47.432Z,6.57
2022-08-26T01:49:18.023Z,6.37
2022-08-26T01:51:47.525Z,6.53
2022-08-26T01:54:17.031Z,6.57
2022-08-26T01:56:49.876Z,6.03
2022-08-26T01:59:20.140Z,6.13
2022-08-26T02:01:48.746Z,6.07
2022-08-26T02:04:21.090Z,6.33
2022-08-26T02:06:50.754Z,6.33
2022-08-26T02:09:21.803Z,6.40
2022-08-26T02:11:51.130Z,6.07
2022-08-26T02:14:22.486Z,6.60
2022-08-26T02:16:53.829Z,5.67
2022-08-26T02:19:32.849Z,6.50
2022-08-26T02:22:05.001Z,5.70
2022-08-26T02:24:49.997Z,6.70
2022-08-26T02:27:20.853Z,6.60
2022-08-26T02:29:52.575Z,7.40
2022-08-26T02:32:20.636Z,6.97
2022-08-26T02:34:48.653Z,6.83
2022-08-26T02:37:17.706Z,6.83
2022-08-26T02:39:47.311Z,6.97
2022-08-26T02:42:16.151Z,6.67
2022-08-26T02:44:44.185Z,7.10
2022-08-26T02:47:14.861Z,6.97
2022-08-26T02:49:44.366Z,7.00
2022-08-26T02:52:15.292Z,7.43
2022-08-26T02:54:43.343Z,7.53
2022-08-26T02:57:15.141Z,7.87
2022-08-26T02:59:43.374Z,6.57
2022-08-26T03:02:12.666Z,7.67
2022-08-26T03:04:41.787Z,7.50
2022-08-26T03:07:26.281Z,7.60
2022-08-26T03:09:54.319Z,7.37
2022-08-26T03:12:23.737Z,7.40
2022-08-26T03:14:53.953Z,7.30
2022-08-26T03:17:22.406Z,7.00
2022-08-26T03:19:57.061Z,6.90
2022-08-26T03:22:25.968Z,7.07
2022-08-26T03:24:55.743Z,6.83
2022-08-26T03:27:25.179Z,6.70
2022-08-26T03:30:11.744Z,6.83
2022-08-26T03:32:41.417Z,7.20
2022-08-26T03:35:10.072Z,7.33
2022-08-26T03:37:38.419Z,7.17
2022-08-26T03:40:10.408Z,7.43
2022-08-26T03:42:41.461Z,6.93
2022-08-26T03:45:15.019Z,6.97
2022-08-26T03:47:43.136Z,6.83
2022-08-26T03:50:14.374Z,7.53
2022-08-26T03:52:43.990Z,7.00
2022-08-26T03:55:12.967Z,7.47
2022-08-26T03:57:43.078Z,7.07
2022-08-26T04:00:18.468Z,6.80
2022-08-26T04:02:51.094Z,7.47
2022-08-26T04:05:22.983Z,7.30
2022-08-26T04:07:51.439Z,7.70
2022-08-26T04:10:28.691Z,6.80
2022-08-26T04:12:59.706Z,7.93
2022-08-26T04:15:28.837Z,7.43
2022-08-26T04:17:57.499Z,7.57
2022-08-26T04:20:26.115Z,7.67
2022-08-26T04:22:54.778Z,7.33
2022-08-26T04:25:24.323Z,7.77
2022-08-26T04:27:52.803Z,7.00
2022-08-26T04:30:23.083Z,7.67
2022-08-26T04:32:52.129Z,7.13
2022-08-26T04:35:25.633Z,7.20
2022-08-26T04:37:54.308Z,6.90
2022-08-26T04:40:22.306Z,7.83
2022-08-26T04:42:50.663Z,7.53
2022-08-26T04:45:19.336Z,7.70
2022-08-26T04:47:56.332Z,7.50
2022-08-26T04:50:25.771Z,6.80
2022-08-26T04:52:55.285Z,7.63
2022-08-26T04:55:25.242Z,7.93
2022-08-26T04:58:08.650Z,7.67
2022-08-26T05:00:39.316Z,7.30
2022-08-26T05:03:10.251Z,8.30
2022-08-26T05:05:40.986Z,7.63
2022-08-26T05:08:09.428Z,7.10
2022-08-26T05:10:43.855Z,7.53
2022-08-26T05:13:15.145Z,7.73
2022-08-26T05:15:45.351Z,7.27
2022-08-26T05:18:16.736Z,8.17
2022-08-26T05:20:47.920Z,7.97
2022-08-26T05:23:16.668Z,7.50
2022-08-26T05:25:46.685Z,6.80
2022-08-26T05:28:16.545Z,7.40
2022-08-26T05:30:45.679Z,8.33
2022-08-26T05:33:15.797Z,6.80
2022-08-26T05:35:45.152Z,7.13
2022-08-26T05:38:16.237Z,7.20
2022-08-26T05:40:46.835Z,6.87
2022-08-26T05:43:15.211Z,6.60
2022-08-26T05:45:46.317Z,7.23
2022-08-26T05:48:17.404Z,6.90
2022-08-26T05:50:49.094Z,7.50
2022-08-26T05:53:21.364Z,7.40
2022-08-26T05:55:51.443Z,7.93
2022-08-26T05:58:21.696Z,8.03
2022-08-26T06:00:58.936Z,8.00
2022-08-26T06:03:29.338Z,7.43
2022-08-26T06:05:57.767Z,6.90
2022-08-26T06:08:25.924Z,7.77
2022-08-26T06:10:56.337Z,6.60
2022-08-26T06:13:26.779Z,7.67
2022-08-26T06:15:56.140Z,7.33
2022-08-26T06:18:27.318Z,8.13
2022-08-26T06:20:58.483Z,7.03
2022-08-26T06:23:42.632Z,7.53
2022-08-26T06:26:11.810Z,7.40
2022-08-26T06:28:39.884Z,7.23
2022-08-26T06:31:11.944Z,7.53
2022-08-26T06:33:40.072Z,7.10
2022-08-26T06:36:09.794Z,7.30
2022-08-26T06:38:37.844Z,7.07
2022-08-26T06:41:10.425Z,7.30
2022-08-26T06:43:38.648Z,8.53
2022-08-26T06:46:08.972Z,7.50
2022-08-26T06:48:37.765Z,7.50
2022-08-26T06:51:13.188Z,7.27
2022-08-26T06:53:43.217Z,6.50
2022-08-26T06:56:12.890Z,6.90
2022-08-26T06:58:42.114Z,6.57
2022-08-26T07:01:16.589Z,6.90
2022-08-26T07:03:47.052Z,7.73
2022-08-26T07:06:19.375Z,7.50
2022-08-26T07:08:47.507Z,7.40
2022-08-26T07:11:15.921Z,6.90
2022-08-26T07:13:44.883Z,6.97
2022-08-26T07:16:16.389Z,6.73
2022-08-26T07:18:46.055Z,7.00
2022-08-26T07:21:17.300Z,6.43
2022-08-26T07:23:46.404Z,6.50
2022-08-26T07:26:17.238Z,6.20
2022-08-26T07:28:46.731Z,5.70
2022-08-26T07:31:17.516Z,6.20
2022-08-26T07:33:46.354Z,6.17
2022-08-26T07:36:18.190Z,5.70
2022-08-26T07:38:48.018Z,5.73
2022-08-26T07:41:18.476Z,5.93
2022-08-26T07:43:47.960Z,5.77
2022-08-26T07:46:26.897Z,5.33
2022-08-26T07:48:56.354Z,5.80
2022-08-26T07:51:26.024Z,8.80
2022-08-26T07:53:55.521Z,5.23
2022-08-26T07:56:24.169Z,5.53
2022-08-26T07:58:54.152Z,6.10
2022-08-26T08:01:23.551Z,5.40
2022-08-26T08:03:53.243Z,5.63
2022-08-26T08:06:22.469Z,6.20
2022-08-26T08:08:57.068Z,5.53
2022-08-26T08:11:27.151Z,5.80
2022-08-26T08:13:56.524Z,5.60
2022-08-26T08:16:26.193Z,5.70
2022-08-26T08:18:54.447Z,5.57
2022-08-26T08:21:24.422Z,7.07
2022-08-26T08:23:53.773Z,5.43
2022-08-26T08:26:23.756Z,6.53
2022-08-26T08:28:54.100Z,5.60
2022-08-26T08:31:54.404Z,5.43
2022-08-26T08:34:12.282Z,5.10
2022-08-26T08:36:40.274Z,5.07
2022-08-26T08:39:09.749Z,5.10
2022-08-26T08:42:04.198Z,5.20
2022-08-26T08:44:32.502Z,5.43
2022-08-26T08:47:06.311Z,5.20
2022-08-26T08:49:35.513Z,5.00
2022-08-26T08:52:10.724Z,5.27
2022-08-26T08:54:39.634Z,5.50
2022-08-26T08:57:13.866Z,5.43
2022-08-26T08:59:51.994Z,5.00
2022-08-26T09:02:26.044Z,5.13
2022-08-26T09:05:06.432Z,4.80
2022-08-26T09:07:40.716Z,4.97
2022-08-26T09:10:30.123Z,4.70
2022-08-26T09:13:01.161Z,5.00
2022-08-26T09:15:41.250Z,4.53
2022-08-26T09:18:19.887Z,4.67
2022-08-26T09:20:54.198Z,5.03
2022-08-26T09:23:22.281Z,4.60
2022-08-26T09:28:31.697Z,4.87
2022-08-26T09:31:07.996Z,4.83
2022-08-26T09:33:39.266Z,5.37
2022-08-26T09:36:16.890Z,5.37
2022-08-26T09:38:45.985Z,4.80
2022-08-26T09:41:26.746Z,4.43
2022-08-26T09:44:17.991Z,4.83
2022-08-26T09:46:54.776Z,4.80
2022-08-26T09:49:27.609Z,4.70
2022-08-26T09:52:14.593Z,4.37
2022-08-26T09:54:44.325Z,4.90
2022-08-26T09:57:26.638Z,13.57
2022-08-26T09:59:56.354Z,7.97
2022-08-26T10:02:41.535Z,5.00
2022-08-26T10:05:20.077Z,5.30
2022-08-26T10:07:51.374Z,6.33
2022-08-26T10:10:25.911Z,4.93
2022-08-26T10:13:03.138Z,5.10
2022-08-26T10:15:39.169Z,4.97
2022-08-26T10:18:13.086Z,5.00
2022-08-26T10:20:51.266Z,4.67
2022-08-26T10:23:24.102Z,5.07
2022-08-26T10:25:59.118Z,5.10
2022-08-26T10:28:35.252Z,5.17
2022-08-26T10:31:10.335Z,5.23
2022-08-26T10:33:40.040Z,5.10
2022-08-26T10:36:43.078Z,5.30
2022-08-26T10:39:28.108Z,5.43
2022-08-26T10:42:01.264Z,5.00
2022-08-26T10:44:34.787Z,5.43
2022-08-26T10:47:15.706Z,5.13
2022-08-26T10:49:46.589Z,5.60
2022-08-26T10:52:21.424Z,5.20
2022-08-26T10:54:55.904Z,5.37
2022-08-26T10:57:29.707Z,4.73
2022-08-26T11:00:22.743Z,5.30
2022-08-26T11:02:55.244Z,4.93
2022-08-26T11:05:24.785Z,5.17
2022-08-26T11:07:56.116Z,5.20
2022-08-26T11:10:56.767Z,4.97
2022-08-26T11:14:00.765Z,5.07
2022-08-26T11:16:43.239Z,4.80
2022-08-26T11:20:00.688Z,5.33
2022-08-26T11:22:32.996Z,4.97
2022-08-26T11:25:12.873Z,5.40
2022-08-26T11:28:02.295Z,5.57
2022-08-26T11:30:59.127Z,5.17
2022-08-26T11:33:59.599Z,5.57
2022-08-26T11:36:55.451Z,5.77
2022-08-26T11:39:36.955Z,5.77
2022-08-26T11:42:20.438Z,5.90
2022-08-26T11:44:49.876Z,5.63
2022-08-26T11:47:28.771Z,6.30
2022-08-26T11:50:12.611Z,5.90
2022-08-26T11:52:42.422Z,6.70
2022-08-26T11:55:16.201Z,6.00
2022-08-26T11:57:47.892Z,6.40
2022-08-26T12:00:22.350Z,6.33
2022-08-26T12:02:52.456Z,5.93
2022-08-26T12:05:26.822Z,6.93
2022-08-26T12:08:03.877Z,6.27
2022-08-26T12:10:34.496Z,5.07
2022-08-26T12:13:04.204Z,5.30
2022-08-26T12:15:34.803Z,4.10
2022-08-26T12:18:20.618Z,3.80
2022-08-26T12:20:59.582Z,3.90
2022-08-26T12:23:40.000Z,3.50
2022-08-26T12:26:11.865Z,3.70
2022-08-26T12:28:44.957Z,3.57
2022-08-26T12:31:20.097Z,3.67
2022-08-26T12:33:49.722Z,3.93
2022-08-26T12:36:22.853Z,3.57
2022-08-26T12:38:54.519Z,3.70
2022-08-26T12:41:47.231Z,3.80
2022-08-26T12:44:39.834Z,4.07
2022-08-26T12:47:14.294Z,4.10
2022-08-26T12:50:08.511Z,4.23
2022-08-26T12:52:45.513Z,3.77
2022-08-26T12:55:22.684Z,4.27
2022-08-26T12:57:50.859Z,4.27
2022-08-26T13:00:30.687Z,4.30
2022-08-26T13:02:59.535Z,3.93
2022-08-26T13:05:33.005Z,3.73
2022-08-26T13:08:12.417Z,4.50
2022-08-26T13:10:45.366Z,5.10
2022-08-26T13:13:14.000Z,5.03
2022-08-26T13:15:42.094Z,6.03
2022-08-26T13:18:10.164Z,5.67
2022-08-26T13:20:44.739Z,5.40
2022-08-26T13:23:13.333Z,5.93
2022-08-26T13:25:43.067Z,5.23
2022-08-26T13:28:11.209Z,4.60
2022-08-26T13:30:40.346Z,5.07
2022-08-26T13:33:09.774Z,6.03
2022-08-26T13:35:40.483Z,6.70
2022-08-26T13:38:14.621Z,6.70
2022-08-26T13:41:03.636Z,6.50
2022-08-26T13:43:32.411Z,6.73
2022-08-26T13:46:01.491Z,6.37
2022-08-26T13:48:30.084Z,6.87
2022-08-26T13:50:58.540Z,6.17
2022-08-26T13:53:26.626Z,6.20
2022-08-26T13:55:54.773Z,6.10
2022-08-26T13:58:25.491Z,6.33
2022-08-26T14:00:54.817Z,8.47
2022-08-26T14:03:24.692Z,19.60
2022-08-26T14:05:53.490Z,6.53
2022-08-26T14:08:22.445Z,6.03
2022-08-26T14:10:50.499Z,5.77
2022-08-26T14:13:19.374Z,5.93
2022-08-26T14:15:49.209Z,5.77
2022-08-26T14:18:21.368Z,5.53
2022-08-26T14:20:52.109Z,4.80
2022-08-26T14:23:20.160Z,5.40
2022-08-26T14:25:48.196Z,4.97
2022-08-26T14:28:16.414Z,5.60
2022-08-26T14:30:47.148Z,5.43
2022-08-26T14:33:17.320Z,5.80
2022-08-26T14:35:49.033Z,5.77
2022-08-26T14:38:18.155Z,5.97
2022-08-26T14:40:46.568Z,5.97
2022-08-26T14:43:16.152Z,4.90
2022-08-26T14:45:46.054Z,5.40
2022-08-26T14:48:14.332Z,4.80
2022-08-26T14:50:43.768Z,4.57
2022-08-26T14:53:29.257Z,4.63
2022-08-26T14:55:57.512Z,4.20
2022-08-26T14:58:25.679Z,6.10
2022-08-26T15:01:04.334Z,5.70
2022-08-26T15:03:32.665Z,5.60
2022-08-26T15:06:02.155Z,6.50
2022-08-26T15:08:31.867Z,5.97
2022-08-26T15:11:00.411Z,5.77
2022-08-26T15:13:28.510Z,6.97
2022-08-26T15:15:56.737Z,5.50
2022-08-26T15:18:24.987Z,5.57
2022-08-26T15:20:53.059Z,5.43
2022-08-26T15:23:22.564Z,6.10
2022-08-26T15:25:50.747Z,6.27
2022-08-26T15:28:18.847Z,6.60
2022-08-26T15:30:46.987Z,6.47
2022-08-26T15:33:15.617Z,7.07
2022-08-26T15:35:44.032Z,6.47
2022-08-26T15:38:12.535Z,6.67
2022-08-26T15:40:42.171Z,6.30
2022-08-26T15:43:27.688Z,7.23
2022-08-26T15:45:56.894Z,6.77
2022-08-26T15:48:25.493Z,6.70
2022-08-26T15:50:55.188Z,7.53
2022-08-26T15:53:24.473Z,6.77
2022-08-26T15:55:56.305Z,7.57
2022-08-26T15:58:26.448Z,8.33
2022-08-26T16:00:56.027Z,7.80
2022-08-26T16:03:24.591Z,8.07
2022-08-26T16:05:53.425Z,8.37
2022-08-26T16:08:22.343Z,8.73
2022-08-26T16:10:51.400Z,8.70
2022-08-26T16:13:21.530Z,8.77
2022-08-26T16:15:50.004Z,7.57
2022-08-26T16:18:20.274Z,9.30
2022-08-26T16:21:08.796Z,8.03
2022-08-26T16:23:45.021Z,9.07
2022-08-26T16:26:16.306Z,7.30
2022-08-26T16:28:46.130Z,7.73
2022-08-26T16:31:16.343Z,7.53
2022-08-26T16:33:44.726Z,7.10
2022-08-26T16:36:13.994Z,7.03
2022-08-26T16:38:42.992Z,7.43
2022-08-26T16:41:11.056Z,7.20
2022-08-26T16:43:39.313Z,7.07
2022-08-26T16:46:11.190Z,7.10
2022-08-26T16:48:39.521Z,6.40
2022-08-26T16:51:11.945Z,7.13
2022-08-26T16:53:40.582Z,7.43
2022-08-26T16:56:12.663Z,10.20
2022-08-26T16:58:41.252Z,7.57
2022-08-26T17:01:11.091Z,7.07
2022-08-26T17:03:39.224Z,7.23
2022-08-26T17:06:07.780Z,7.37
2022-08-26T17:08:37.359Z,7.20
2022-08-26T17:11:06.084Z,7.00
2022-08-26T17:13:35.141Z,6.50
2022-08-26T17:16:05.351Z,7.53
2022-08-26T17:18:35.005Z,7.87
2022-08-26T17:21:04.572Z,7.67
2022-08-26T17:23:33.199Z,8.37
2022-08-26T17:26:01.425Z,7.17
2022-08-26T17:28:29.639Z,7.20
2022-08-26T17:30:58.396Z,7.60
2022-08-26T17:33:26.995Z,7.57
2022-08-26T17:35:56.905Z,7.73
2022-08-26T17:38:25.754Z,7.57
2022-08-26T17:40:53.826Z,7.07
2022-08-26T17:43:21.843Z,7.37
2022-08-26T17:45:50.641Z,7.27
2022-08-26T17:48:18.863Z,7.53
2022-08-26T17:50:49.463Z,7.63
2022-08-26T17:53:19.460Z,7.93
2022-08-26T17:55:48.152Z,7.97
2022-08-26T17:58:17.300Z,7.43
2022-08-26T18:00:47.123Z,7.73
2022-08-26T18:03:15.185Z,8.27
2022-08-26T18:05:43.820Z,8.37
2022-08-26T18:08:11.996Z,8.50
2022-08-26T18:10:44.328Z,9.00
2022-08-26T18:13:12.377Z,7.97
2022-08-26T18:15:40.816Z,9.30
2022-08-26T18:18:09.260Z,8.27
2022-08-26T18:20:40.113Z,8.03
2022-08-26T18:23:08.593Z,8.30
2022-08-26T18:25:40.546Z,9.73
2022-08-26T18:28:10.742Z,8.43
2022-08-26T18:30:39.282Z,8.07
2022-08-26T18:33:07.527Z,8.03
2022-08-26T18:35:39.785Z,8.47
2022-08-26T18:38:11.926Z,8.23
2022-08-26T18:40:41.680Z,9.33
2022-08-26T18:43:11.411Z,8.40
2022-08-26T18:45:39.499Z,8.57
2022-08-26T18:48:07.619Z,8.37
2022-08-26T18:50:40.211Z,9.10
2022-08-26T18:53:08.962Z,8.70
2022-08-26T18:55:37.248Z,9.00
2022-08-26T18:58:05.329Z,9.27
2022-08-26T19:00:34.930Z,8.93
2022-08-26T19:03:03.052Z,8.23
2022-08-26T19:05:31.872Z,8.67
2022-08-26T19:07:59.965Z,8.97
2022-08-26T19:10:28.024Z,12.50
2022-08-26T19:13:00.129Z,10.60
2022-08-26T19:15:28.877Z,24.97
2022-08-26T19:17:58.706Z,10.50
2022-08-26T19:20:26.715Z,9.40
2022-08-26T19:22:57.406Z,9.23
2022-08-26T19:25:27.797Z,8.87
2022-08-26T19:27:55.878Z,8.33
2022-08-26T19:30:24.119Z,8.17
2022-08-26T19:32:56.127Z,9.30
2022-08-26T19:35:28.479Z,8.33
2022-08-26T19:37:58.233Z,8.47
2022-08-26T19:40:26.426Z,8.43
2022-08-26T19:42:54.592Z,9.00
2022-08-26T19:45:25.367Z,8.57
2022-08-26T19:47:53.999Z,9.13
2022-08-26T19:50:22.719Z,8.63
2022-08-26T19:52:52.231Z,8.17
2022-08-26T19:55:22.452Z,8.93
2022-08-26T19:57:52.365Z,8.87
2022-08-26T20:00:23.585Z,8.23
2022-08-26T20:02:52.464Z,8.70
2022-08-26T20:05:22.861Z,8.83
2022-08-26T20:07:52.839Z,8.20
2022-08-26T20:10:24.288Z,8.47
2022-08-26T20:12:52.894Z,8.83
2022-08-26T20:15:22.364Z,8.47
2022-08-26T20:17:51.354Z,9.20
2022-08-26T20:20:38.301Z,8.50
2022-08-26T20:23:07.948Z,9.40
2022-08-26T20:25:36.173Z,8.27
2022-08-26T20:28:05.149Z,8.07
2022-08-26T20:30:33.326Z,9.10
2022-08-26T20:33:03.813Z,8.80
2022-08-26T20:35:32.329Z,9.57
2022-08-26T20:38:00.539Z,9.40
2022-08-26T20:40:30.177Z,8.90
2022-08-26T20:42:58.796Z,9.07
2022-08-26T20:45:27.261Z,9.00
2022-08-26T20:47:55.675Z,9.67
2022-08-26T20:50:23.844Z,9.77
2022-08-26T20:52:53.495Z,9.13
2022-08-26T20:55:22.101Z,9.57
2022-08-26T20:57:51.941Z,8.70
2022-08-26T21:00:22.979Z,9.40
2022-08-26T21:02:54.827Z,8.10
2022-08-26T21:05:23.471Z,8.53
2022-08-26T21:07:51.669Z,8.13
2022-08-26T21:10:21.304Z,7.83
2022-08-26T21:12:53.070Z,8.30
2022-08-26T21:15:21.467Z,7.67
2022-08-26T21:17:49.927Z,7.87
2022-08-26T21:20:18.055Z,8.23
2022-08-26T21:22:46.494Z,7.43
2022-08-26T21:25:14.716Z,7.60
2022-08-26T21:27:42.876Z,8.60
2022-08-26T21:30:15.918Z,8.07
2022-08-26T21:32:44.468Z,7.50
2022-08-26T21:35:12.639Z,7.93
2022-08-26T21:37:40.786Z,7.10
2022-08-26T21:40:10.612Z,7.80
2022-08-26T21:42:38.781Z,7.40
2022-08-26T21:45:08.085Z,7.47
2022-08-26T21:47:38.320Z,7.07
2022-08-26T21:50:07.601Z,7.70
2022-08-26T21:52:35.736Z,7.63
2022-08-26T21:55:09.021Z,7.20
2022-08-26T21:57:39.948Z,8.47
2022-08-26T22:00:09.934Z,7.70
2022-08-26T22:02:39.480Z,7.37
2022-08-26T22:05:08.043Z,7.20
2022-08-26T22:07:36.224Z,7.27
2022-08-26T22:10:04.643Z,7.17
2022-08-26T22:12:32.809Z,7.23
2022-08-26T22:15:02.617Z,8.03
2022-08-26T22:17:31.455Z,7.40
2022-08-26T22:20:00.915Z,7.50
2022-08-26T22:22:29.577Z,7.20
2022-08-26T22:24:57.655Z,7.33
2022-08-26T22:27:26.351Z,7.13
2022-08-26T22:29:54.408Z,8.23
2022-08-26T22:32:23.415Z,8.37
2022-08-26T22:34:51.410Z,7.67
2022-08-26T22:37:20.887Z,7.87
2022-08-26T22:39:49.042Z,7.90
2022-08-26T22:42:17.130Z,7.70
2022-08-26T22:44:45.252Z,7.73
2022-08-26T22:47:13.339Z,7.67
2022-08-26T22:49:41.427Z,7.67
2022-08-26T22:52:09.483Z,7.30
2022-08-26T22:54:38.939Z,7.07
2022-08-26T22:57:07.029Z,6.87
2022-08-26T22:59:35.122Z,6.47
2022-08-26T23:02:03.307Z,7.30
2022-08-26T23:04:31.436Z,6.60
2022-08-26T23:07:02.889Z,6.57
2022-08-26T23:09:31.149Z,7.20
2022-08-26T23:12:00.568Z,6.73
2022-08-26T23:14:29.445Z,7.10
2022-08-26T23:16:57.610Z,6.73
2022-08-26T23:19:25.750Z,7.57
2022-08-26T23:21:53.868Z,7.23
2022-08-26T23:24:22.069Z,7.03
2022-08-26T23:26:50.211Z,6.53
2022-08-26T23:29:19.725Z,7.10
2022-08-26T23:31:48.093Z,7.30
2022-08-26T23:34:33.806Z,6.33
2022-08-26T23:37:02.617Z,7.87
2022-08-26T23:39:35.286Z,7.63
2022-08-26T23:42:03.457Z,7.83
2022-08-26T23:44:33.000Z,7.30
2022-08-26T23:47:01.643Z,7.53
2022-08-26T23:49:30.129Z,6.93
2022-08-26T23:52:16.903Z,6.70
2022-08-26T23:54:45.483Z,7.20
2022-08-26T23:57:13.526Z,7.07
2022-08-26T23:59:43.212Z,7.67
